createdAt,value
2022-11-25T00:00:26.848Z,94.10
2022-11-25T00:05:28.409Z,93.10
2022-11-25T00:10:30.586Z,93.45
2022-11-25T00:15:31.530Z,93.89
2022-11-25T00:20:32.333Z,92.90
2022-11-25T00:25:34.458Z,93.60
2022-11-25T00:30:35.231Z,93.42
2022-11-25T00:35:36.209Z,92.59
2022-11-25T00:40:38.341Z,93.58
2022-11-25T00:45:39.181Z,92.82
2022-11-25T00:50:40.159Z,93.53
2022-11-25T00:55:56.239Z,93.09
2022-11-25T01:01:02.388Z,93.26
2022-11-25T01:06:04.123Z,93.61
2022-11-25T01:11:08.854Z,92.74
2022-11-25T01:16:12.700Z,93.01
2022-11-25T01:21:15.335Z,93.22
2022-11-25T01:26:19.792Z,93.06
2022-11-25T01:31:22.631Z,92.95
2022-11-25T01:36:23.844Z,93.65
2022-11-25T01:41:28.382Z,93.84
2022-11-25T01:46:36.959Z,93.20
2022-11-25T01:51:42.734Z,93.89
2022-11-25T01:56:50.988Z,93.63
2022-11-25T02:01:52.112Z,93.43
2022-11-25T02:07:00.746Z,92.72
2022-11-25T02:12:04.101Z,92.52
2022-11-25T02:17:05.202Z,92.88
2022-11-25T02:22:12.825Z,92.58
2022-11-25T02:27:15.498Z,92.44
2022-11-25T02:32:16.820Z,92.59
2022-11-25T02:37:19.804Z,92.28
2022-11-25T02:42:23.691Z,91.98
2022-11-25T02:47:24.498Z,92.27
2022-11-25T02:52:25.345Z,91.79
2022-11-25T02:57:27.644Z,92.56
2022-11-25T03:02:28.432Z,91.84
2022-11-25T03:07:29.955Z,92.21
2022-11-25T03:12:34.934Z,92.71
2022-11-25T03:17:35.749Z,92.13
2022-11-25T03:22:36.600Z,92.33
2022-11-25T03:27:41.072Z,91.34
2022-11-25T03:32:42.729Z,92.21
2022-11-25T03:37:45.870Z,92.57
2022-11-25T03:42:48.303Z,92.21
2022-11-25T03:47:50.370Z,92.32
2022-11-25T03:52:51.695Z,92.40
2022-11-25T03:57:55.278Z,92.18
2022-11-25T04:02:57.812Z,92.21
2022-11-25T04:07:58.743Z,92.17
2022-11-25T04:13:01.962Z,91.69
2022-11-25T04:18:09.604Z,92.49
2022-11-25T04:23:11.012Z,92.05
2022-11-25T04:28:19.368Z,91.85
2022-11-25T04:33:20.311Z,91.46
2022-11-25T04:38:22.247Z,92.07
2022-11-25T04:43:25.180Z,92.59
2022-11-25T04:48:35.028Z,91.50
2022-11-25T04:53:36.357Z,92.15
2022-11-25T04:58:56.296Z,92.16
2022-11-25T05:03:57.793Z,91.50
2022-11-25T05:09:00.546Z,91.17
2022-11-25T05:14:04.162Z,92.17
2022-11-25T05:19:05.654Z,91.69
2022-11-25T05:24:06.860Z,93.00
2022-11-25T05:29:11.450Z,92.04
2022-11-25T05:34:12.350Z,92.50
2022-11-25T05:39:13.815Z,92.16
2022-11-25T05:44:38.672Z,92.81
2022-11-25T05:49:39.712Z,91.93
2022-11-25T05:54:41.254Z,92.39
2022-11-25T05:59:44.291Z,92.35
2022-11-25T06:04:52.771Z,92.48
2022-11-25T06:09:53.610Z,92.28
2022-11-25T06:14:56.018Z,92.24
2022-11-25T06:19:56.936Z,92.58
2022-11-25T06:25:03.387Z,92.30
2022-11-25T06:30:09.291Z,92.32
2022-11-25T06:35:11.645Z,92.21
2022-11-25T06:40:20.853Z,92.49
2022-11-25T06:45:23.023Z,92.04
2022-11-25T06:50:24.338Z,92.27
2022-11-25T06:55:25.139Z,92.40
2022-11-25T07:00:27.579Z,91.98
2022-11-25T07:05:28.437Z,92.05
2022-11-25T07:10:29.344Z,91.79
2022-11-25T07:15:31.536Z,91.50
2022-11-25T07:20:32.807Z,91.57
2022-11-25T07:25:34.283Z,91.73
2022-11-25T07:35:57.213Z,91.30
2022-11-25T07:40:58.125Z,91.49
2022-11-25T07:46:10.020Z,91.29
2022-11-25T07:51:18.735Z,90.97
2022-11-25T07:56:21.135Z,91.08
2022-11-25T08:01:23.574Z,90.44
2022-11-25T08:06:26.583Z,90.43
2022-11-25T08:11:29.889Z,89.91
2022-11-25T08:16:33.018Z,89.24
2022-11-25T08:21:34.512Z,89.87
2022-11-25T08:26:37.764Z,89.98
2022-11-25T08:31:39.991Z,89.50
2022-11-25T08:36:46.564Z,89.35
2022-11-25T08:41:54.228Z,88.97
2022-11-25T08:46:57.369Z,89.05
2022-11-25T08:51:58.464Z,88.85
2022-11-25T08:57:00.713Z,88.37
2022-11-25T09:02:03.294Z,88.48
2022-11-25T09:07:05.585Z,88.67
2022-11-25T09:12:06.678Z,88.06
2022-11-25T09:17:12.114Z,87.65
2022-11-25T09:22:12.935Z,87.73
2022-11-25T09:27:13.754Z,88.42
2022-11-25T09:32:15.972Z,87.83
2022-11-25T09:37:16.821Z,87.66
2022-11-25T09:42:49.464Z,88.49
2022-11-25T09:48:01.661Z,87.07
2022-11-25T09:53:10.727Z,86.29
2022-11-25T09:58:22.627Z,86.44
2022-11-25T10:03:35.730Z,85.73
2022-11-25T10:08:40.460Z,86.34
2022-11-25T10:13:47.935Z,86.32
2022-11-25T10:19:02.091Z,85.26
2022-11-25T10:24:05.003Z,85.33
2022-11-25T10:29:23.000Z,84.74
2022-11-25T10:34:37.283Z,84.31
2022-11-25T10:39:38.301Z,83.83
2022-11-25T10:44:41.111Z,83.25
2022-11-25T10:49:52.016Z,83.08
2022-11-25T10:55:08.790Z,82.85
2022-11-25T11:00:26.588Z,81.40
2022-11-25T11:05:30.322Z,81.26
2022-11-25T11:10:31.154Z,80.53
2022-11-25T11:15:33.767Z,79.62
2022-11-25T11:20:36.185Z,80.04
2022-11-25T11:25:38.534Z,78.39
2022-11-25T11:30:56.547Z,76.93
2022-11-25T11:36:12.554Z,77.30
2022-11-25T11:41:23.663Z,77.23
2022-11-25T11:46:34.162Z,76.81
2022-11-25T11:51:45.381Z,76.34
2022-11-25T11:56:55.016Z,76.47
2022-11-25T12:02:13.962Z,75.29
2022-11-25T12:07:22.304Z,75.31
2022-11-25T12:12:35.061Z,75.88
2022-11-25T12:17:45.082Z,75.21
2022-11-25T12:22:54.908Z,76.14
2022-11-25T12:28:01.623Z,77.83
2022-11-25T12:33:11.636Z,77.74
2022-11-25T12:38:29.381Z,75.17
2022-11-25T12:43:39.981Z,74.16
2022-11-25T12:48:43.715Z,75.17
2022-11-25T12:53:53.105Z,73.96
2022-11-25T12:59:07.708Z,75.19
2022-11-25T13:04:32.589Z,74.52
2022-11-25T13:09:55.680Z,74.85
2022-11-25T13:15:21.487Z,74.24
2022-11-25T13:20:46.046Z,74.55
2022-11-25T13:25:49.828Z,73.92
2022-11-25T13:30:51.887Z,74.42
2022-11-25T13:35:54.223Z,74.01
2022-11-25T13:46:36.126Z,74.10
2022-11-25T13:51:37.947Z,76.26
2022-11-25T13:56:39.027Z,76.67
2022-11-25T14:01:42.494Z,77.40
2022-11-25T14:07:06.590Z,77.68
2022-11-25T14:12:38.750Z,77.80
2022-11-25T14:18:04.819Z,78.44
2022-11-25T14:23:37.353Z,78.47
2022-11-25T14:28:45.239Z,78.69
2022-11-25T14:33:54.660Z,79.01
2022-11-25T14:38:59.787Z,83.42
2022-11-25T14:44:05.848Z,82.33
2022-11-25T14:49:30.692Z,78.38
2022-11-25T14:54:29.835Z,78.62
2022-11-25T14:59:30.715Z,78.53
2022-11-25T15:04:34.633Z,78.36
2022-11-25T15:09:43.135Z,80.24
2022-11-25T15:14:49.703Z,80.10
2022-11-25T15:19:53.016Z,80.74
2022-11-25T15:24:56.483Z,82.53
2022-11-25T15:29:58.993Z,81.90
2022-11-25T15:35:03.238Z,82.48
2022-11-25T15:40:30.940Z,82.23
2022-11-25T15:45:38.225Z,82.04
2022-11-25T15:50:41.500Z,81.97
2022-11-25T15:55:42.339Z,82.24
2022-11-25T16:00:43.213Z,81.78
2022-11-25T16:05:56.880Z,82.57
2022-11-25T16:11:00.403Z,82.19
2022-11-25T16:16:09.413Z,82.89
2022-11-25T16:21:14.675Z,82.45
2022-11-25T16:26:19.576Z,81.61
2022-11-25T16:31:20.474Z,82.20
2022-11-25T16:36:23.002Z,81.69
2022-11-25T16:41:26.921Z,82.87
2022-11-25T16:46:28.476Z,84.06
2022-11-25T16:51:30.752Z,83.88
2022-11-25T16:56:31.812Z,84.81
2022-11-25T17:01:35.305Z,85.01
2022-11-25T17:06:37.866Z,85.16
2022-11-25T17:11:46.715Z,85.90
2022-11-25T17:16:47.860Z,85.96
2022-11-25T17:21:50.069Z,85.73
2022-11-25T17:26:54.501Z,86.13
2022-11-25T17:31:58.636Z,87.34
2022-11-25T17:37:01.101Z,86.56
2022-11-25T17:42:02.654Z,86.16
2022-11-25T17:47:03.556Z,86.18
2022-11-25T17:52:06.502Z,86.42
2022-11-25T17:57:11.073Z,86.17
2022-11-25T18:02:18.623Z,87.55
2022-11-25T18:07:20.939Z,86.69
2022-11-25T18:12:28.056Z,86.59
2022-11-25T18:17:28.872Z,86.83
2022-11-25T18:22:31.434Z,86.87
2022-11-25T18:27:32.391Z,87.57
2022-11-25T18:32:33.204Z,86.54
2022-11-25T18:37:35.437Z,86.52
2022-11-25T18:42:36.241Z,85.70
2022-11-25T18:47:37.055Z,85.80
2022-11-25T18:52:39.188Z,86.48
2022-11-25T18:57:40.828Z,86.42
2022-11-25T19:02:41.819Z,86.30
2022-11-25T19:07:44.112Z,88.94
2022-11-25T19:12:48.227Z,87.07
2022-11-25T19:17:53.083Z,87.36
2022-11-25T19:23:00.290Z,87.36
2022-11-25T19:28:02.354Z,87.49
2022-11-25T19:33:03.735Z,88.61
2022-11-25T19:38:14.637Z,89.41
2022-11-25T19:43:15.548Z,89.01
2022-11-25T19:48:19.285Z,90.13
2022-11-25T19:53:22.976Z,89.99
2022-11-25T19:58:24.000Z,89.83
2022-11-25T20:03:27.999Z,90.69
2022-11-25T20:08:30.204Z,91.11
2022-11-25T20:13:31.136Z,90.42
2022-11-25T20:18:32.029Z,90.82
2022-11-25T20:23:43.378Z,90.92
2022-11-25T20:28:44.733Z,90.42
2022-11-25T20:33:45.644Z,90.98
2022-11-25T20:38:52.789Z,90.99
2022-11-25T20:43:54.248Z,90.87
2022-11-25T20:48:57.676Z,90.89
2022-11-25T20:54:01.985Z,91.44
2022-11-25T20:59:02.856Z,90.95
2022-11-25T21:04:03.703Z,90.49
2022-11-25T21:09:05.916Z,90.89
2022-11-25T21:14:13.133Z,90.98
2022-11-25T21:19:14.975Z,90.66
2022-11-25T21:24:31.115Z,91.60
2022-11-25T21:29:32.500Z,91.15
2022-11-25T21:34:33.344Z,91.38
2022-11-25T21:39:35.526Z,90.92
2022-11-25T21:44:40.649Z,91.96
2022-11-25T21:49:41.587Z,90.96
2022-11-25T21:54:44.378Z,91.60
2022-11-25T21:59:46.819Z,91.43
2022-11-25T22:04:50.761Z,91.81
2022-11-25T22:09:52.967Z,92.65
2022-11-25T22:14:54.367Z,92.62
2022-11-25T22:19:55.454Z,92.48
2022-11-25T22:24:57.578Z,92.13
2022-11-25T22:29:58.492Z,93.25
2022-11-25T22:34:59.294Z,93.07
2022-11-25T22:40:01.464Z,92.59
2022-11-25T22:45:05.288Z,93.34
2022-11-25T22:50:14.000Z,93.22
2022-11-25T22:55:20.343Z,92.91
2022-11-25T23:00:27.082Z,92.65
2022-11-25T23:05:33.043Z,92.72
2022-11-25T23:10:35.541Z,93.17
2022-11-25T23:15:36.817Z,92.51
2022-11-25T23:20:39.271Z,92.72
2022-11-25T23:25:41.534Z,92.72
2022-11-25T23:30:47.936Z,92.47
2022-11-25T23:35:48.866Z,92.86
2022-11-25T23:40:51.085Z,92.84
2022-11-25T23:45:54.555Z,91.96
2022-11-25T23:50:58.456Z,90.63
2022-11-25T23:56:00.732Z,90.74
